sensor_id;sensor_type;location;lat;lon;timestamp;pressure;altitude;pressure_sealevel;temperature;humidity
30730;BME280;17476;48.458;7.928;2023-07-13T00:01:01;99937.56;;;22.72;56.66
30730;BME280;17476;48.458;7.928;2023-07-13T00:03:27;99938.13;;;22.74;57.31
30730;BME280;17476;48.458;7.928;2023-07-13T00:06:00;99934.09;;;22.71;57.22
30730;BME280;17476;48.458;7.928;2023-07-13T00:08:32;99934.34;;;22.70;57.90
30730;BME280;17476;48.458;7.928;2023-07-13T00:11:02;99934.66;;;22.73;57.99
30730;BME280;17476;48.458;7.928;2023-07-13T00:13:30;99935.19;;;22.75;57.73
30730;BME280;17476;48.458;7.928;2023-07-13T00:15:58;99941.75;;;22.84;57.27
30730;BME280;17476;48.458;7.928;2023-07-13T00:18:24;99941.59;;;22.74;57.86
30730;BME280;17476;48.458;7.928;2023-07-13T00:20:52;99942.72;;;22.78;57.17
30730;BME280;17476;48.458;7.928;2023-07-13T00:23:18;99943.06;;;22.65;59.05
30730;BME280;17476;48.458;7.928;2023-07-13T00:25:44;99949.13;;;22.44;60.33
30730;BME280;17476;48.458;7.928;2023-07-13T00:28:10;99956.31;;;22.43;60.12
30730;BME280;17476;48.458;7.928;2023-07-13T00:30:36;99956.31;;;22.43;59.70
30730;BME280;17476;48.458;7.928;2023-07-13T00:33:01;99949.03;;;22.39;60.10
30730;BME280;17476;48.458;7.928;2023-07-13T00:35:30;99937.41;;;22.45;59.84
30730;BME280;17476;48.458;7.928;2023-07-13T00:37:56;99932.72;;;22.52;60.10
30730;BME280;17476;48.458;7.928;2023-07-13T00:40:22;99935.78;;;22.60;59.71
30730;BME280;17476;48.458;7.928;2023-07-13T00:42:48;99936.13;;;22.64;59.82
30730;BME280;17476;48.458;7.928;2023-07-13T00:47:40;99934.06;;;22.54;59.58
30730;BME280;17476;48.458;7.928;2023-07-13T00:50:11;99935.69;;;22.55;59.42
30730;BME280;17476;48.458;7.928;2023-07-13T00:52:43;99932.63;;;22.47;60.50
30730;BME280;17476;48.458;7.928;2023-07-13T00:55:11;99942.38;;;22.41;60.41
30730;BME280;17476;48.458;7.928;2023-07-13T00:57:38;99935.13;;;22.37;61.15
30730;BME280;17476;48.458;7.928;2023-07-13T01:00:06;99938.66;;;22.25;62.06
30730;BME280;17476;48.458;7.928;2023-07-13T01:02:41;99943.25;;;22.13;62.28
30730;BME280;17476;48.458;7.928;2023-07-13T01:05:13;99939.78;;;22.01;62.72
30730;BME280;17476;48.458;7.928;2023-07-13T01:07:41;99943.44;;;21.95;63.00
30730;BME280;17476;48.458;7.928;2023-07-13T01:10:08;99939.47;;;21.97;62.64
30730;BME280;17476;48.458;7.928;2023-07-13T01:12:34;99936.94;;;21.91;62.82
30730;BME280;17476;48.458;7.928;2023-07-13T01:15:01;99941.72;;;21.89;62.90
30730;BME280;17476;48.458;7.928;2023-07-13T01:17:29;99938.72;;;21.73;63.69
30730;BME280;17476;48.458;7.928;2023-07-13T01:19:55;99936.59;;;21.59;64.06
30730;BME280;17476;48.458;7.928;2023-07-13T01:22:21;99938.94;;;21.55;64.09
30730;BME280;17476;48.458;7.928;2023-07-13T01:24:53;99937.53;;;21.52;64.44
30730;BME280;17476;48.458;7.928;2023-07-13T01:27:25;99944.13;;;21.50;64.33
30730;BME280;17476;48.458;7.928;2023-07-13T01:29:54;99949.91;;;21.47;63.84
30730;BME280;17476;48.458;7.928;2023-07-13T01:32:29;99945.19;;;21.37;64.05
30730;BME280;17476;48.458;7.928;2023-07-13T01:35:03;99948.31;;;21.46;63.80
30730;BME280;17476;48.458;7.928;2023-07-13T01:37:29;99944.69;;;21.52;64.00
30730;BME280;17476;48.458;7.928;2023-07-13T01:39:59;99947.72;;;21.56;63.91
30730;BME280;17476;48.458;7.928;2023-07-13T01:42:25;99951.06;;;21.51;63.91
30730;BME280;17476;48.458;7.928;2023-07-13T01:44:51;99945.19;;;21.49;64.20
30730;BME280;17476;48.458;7.928;2023-07-13T01:47:17;99938.38;;;21.41;64.11
30730;BME280;17476;48.458;7.928;2023-07-13T01:49:43;99939.63;;;21.39;64.27
30730;BME280;17476;48.458;7.928;2023-07-13T01:52:11;99946.00;;;21.14;65.04
30730;BME280;17476;48.458;7.928;2023-07-13T01:54:37;99938.03;;;20.91;66.88
30730;BME280;17476;48.458;7.928;2023-07-13T01:57:03;99938.84;;;20.68;67.55
30730;BME280;17476;48.458;7.928;2023-07-13T01:59:29;99939.44;;;20.82;67.17
30730;BME280;17476;48.458;7.928;2023-07-13T02:01:55;99937.91;;;20.97;66.61
30730;BME280;17476;48.458;7.928;2023-07-13T02:04:21;99931.22;;;21.07;66.08
30730;BME280;17476;48.458;7.928;2023-07-13T02:06:46;99934.44;;;21.09;65.47
30730;BME280;17476;48.458;7.928;2023-07-13T02:09:12;99929.13;;;21.09;65.83
30730;BME280;17476;48.458;7.928;2023-07-13T02:11:38;99925.91;;;21.07;65.40
30730;BME280;17476;48.458;7.928;2023-07-13T02:14:04;99933.16;;;20.99;65.76
30730;BME280;17476;48.458;7.928;2023-07-13T02:16:30;99934.31;;;20.92;65.80
30730;BME280;17476;48.458;7.928;2023-07-13T02:18:56;99935.13;;;20.92;66.21
30730;BME280;17476;48.458;7.928;2023-07-13T02:21:23;99931.47;;;20.93;65.86
30730;BME280;17476;48.458;7.928;2023-07-13T02:23:49;99933.06;;;20.94;66.04
30730;BME280;17476;48.458;7.928;2023-07-13T02:26:15;99927.97;;;20.93;65.96
30730;BME280;17476;48.458;7.928;2023-07-13T02:28:41;99930.28;;;20.89;65.81
30730;BME280;17476;48.458;7.928;2023-07-13T02:31:11;99926.69;;;20.84;65.72
30730;BME280;17476;48.458;7.928;2023-07-13T02:33:37;99932.13;;;20.77;66.01
30730;BME280;17476;48.458;7.928;2023-07-13T02:36:03;99927.28;;;20.74;66.08
30730;BME280;17476;48.458;7.928;2023-07-13T02:38:32;99922.78;;;20.75;66.12
30730;BME280;17476;48.458;7.928;2023-07-13T02:41:06;99925.44;;;20.75;66.44
30730;BME280;17476;48.458;7.928;2023-07-13T02:43:33;99931.69;;;20.38;67.89
30730;BME280;17476;48.458;7.928;2023-07-13T02:46:00;99934.78;;;20.24;68.61
30730;BME280;17476;48.458;7.928;2023-07-13T02:48:30;99924.56;;;20.09;69.22
30730;BME280;17476;48.458;7.928;2023-07-13T02:50:56;99929.84;;;19.97;69.98
30730;BME280;17476;48.458;7.928;2023-07-13T02:53:22;99929.41;;;20.00;70.30
30730;BME280;17476;48.458;7.928;2023-07-13T02:55:47;99929.66;;;20.10;69.92
30730;BME280;17476;48.458;7.928;2023-07-13T02:58:13;99934.47;;;20.02;70.16
30730;BME280;17476;48.458;7.928;2023-07-13T03:00:44;99935.41;;;19.77;71.57
30730;BME280;17476;48.458;7.928;2023-07-13T03:03:12;99941.16;;;19.56;71.93
30730;BME280;17476;48.458;7.928;2023-07-13T03:05:42;99933.16;;;19.44;72.20
30730;BME280;17476;48.458;7.928;2023-07-13T03:08:11;99937.53;;;19.50;71.97
30730;BME280;17476;48.458;7.928;2023-07-13T03:10:37;99935.78;;;19.62;71.46
30730;BME280;17476;48.458;7.928;2023-07-13T03:13:05;99941.09;;;19.62;70.75
30730;BME280;17476;48.458;7.928;2023-07-13T03:15:49;99943.19;;;19.60;70.64
30730;BME280;17476;48.458;7.928;2023-07-13T03:18:14;99951.03;;;19.49;70.76
30730;BME280;17476;48.458;7.928;2023-07-13T03:20:40;99952.59;;;19.38;70.87
30730;BME280;17476;48.458;7.928;2023-07-13T03:23:06;99959.66;;;19.44;70.88
30730;BME280;17476;48.458;7.928;2023-07-13T03:25:32;99960.75;;;19.36;71.18
30730;BME280;17476;48.458;7.928;2023-07-13T03:27:57;99955.97;;;19.27;72.06
30730;BME280;17476;48.458;7.928;2023-07-13T03:30:23;99962.75;;;19.41;71.55
30730;BME280;17476;48.458;7.928;2023-07-13T03:32:49;99958.63;;;19.63;70.64
30730;BME280;17476;48.458;7.928;2023-07-13T03:35:15;99962.41;;;19.74;69.57
30730;BME280;17476;48.458;7.928;2023-07-13T03:37:41;99972.72;;;19.82;69.22
30730;BME280;17476;48.458;7.928;2023-07-13T03:40:09;99962.16;;;19.94;68.97
30730;BME280;17476;48.458;7.928;2023-07-13T03:42:35;99962.31;;;19.99;68.57
30730;BME280;17476;48.458;7.928;2023-07-13T03:45:01;99959.13;;;19.90;68.74
30730;BME280;17476;48.458;7.928;2023-07-13T03:47:27;99966.59;;;19.82;68.66
30730;BME280;17476;48.458;7.928;2023-07-13T03:49:53;99968.25;;;19.65;69.61
30730;BME280;17476;48.458;7.928;2023-07-13T03:52:19;99973.50;;;19.46;70.27
30730;BME280;17476;48.458;7.928;2023-07-13T03:54:44;99973.59;;;19.40;70.86
30730;BME280;17476;48.458;7.928;2023-07-13T03:57:10;99976.75;;;19.48;70.25
30730;BME280;17476;48.458;7.928;2023-07-13T03:59:36;99975.63;;;19.56;69.72
30730;BME280;17476;48.458;7.928;2023-07-13T04:02:02;99973.66;;;19.51;69.80
30730;BME280;17476;48.458;7.928;2023-07-13T04:04:29;99974.00;;;19.36;71.01
30730;BME280;17476;48.458;7.928;2023-07-13T04:06:59;99977.69;;;19.35;71.03
30730;BME280;17476;48.458;7.928;2023-07-13T04:09:25;99982.94;;;19.42;70.93
30730;BME280;17476;48.458;7.928;2023-07-13T04:11:51;99980.59;;;19.52;70.75
30730;BME280;17476;48.458;7.928;2023-07-13T04:14:17;99982.22;;;19.53;70.57
30730;BME280;17476;48.458;7.928;2023-07-13T04:16:43;99982.44;;;19.52;70.84
30730;BME280;17476;48.458;7.928;2023-07-13T04:19:10;99981.63;;;19.51;70.69
30730;BME280;17476;48.458;7.928;2023-07-13T04:21:37;99984.94;;;19.47;70.71
30730;BME280;17476;48.458;7.928;2023-07-13T04:24:03;99992.66;;;19.48;70.59
30730;BME280;17476;48.458;7.928;2023-07-13T04:26:30;99987.34;;;19.48;70.84
30730;BME280;17476;48.458;7.928;2023-07-13T04:28:56;100001.06;;;19.45;71.58
30730;BME280;17476;48.458;7.928;2023-07-13T04:31:22;99997.94;;;19.30;72.35
30730;BME280;17476;48.458;7.928;2023-07-13T04:33:49;100002.81;;;19.33;72.54
30730;BME280;17476;48.458;7.928;2023-07-13T04:36:16;100003.06;;;19.31;72.65
30730;BME280;17476;48.458;7.928;2023-07-13T04:38:42;100005.03;;;19.36;72.00
30730;BME280;17476;48.458;7.928;2023-07-13T04:41:09;100004.81;;;19.38;72.05
30730;BME280;17476;48.458;7.928;2023-07-13T04:43:36;100006.50;;;19.50;71.62
30730;BME280;17476;48.458;7.928;2023-07-13T04:46:11;100009.16;;;19.50;71.45
30730;BME280;17476;48.458;7.928;2023-07-13T04:48:37;100009.69;;;19.41;72.19
30730;BME280;17476;48.458;7.928;2023-07-13T04:51:04;100007.47;;;19.38;71.68
30730;BME280;17476;48.458;7.928;2023-07-13T04:53:30;100009.44;;;19.42;71.67
30730;BME280;17476;48.458;7.928;2023-07-13T04:55:58;100006.97;;;19.47;71.48
30730;BME280;17476;48.458;7.928;2023-07-13T04:58:24;100014.00;;;19.60;71.13
30730;BME280;17476;48.458;7.928;2023-07-13T05:01:03;100025.19;;;19.62;71.18
30730;BME280;17476;48.458;7.928;2023-07-13T05:03:30;100020.78;;;19.74;70.63
30730;BME280;17476;48.458;7.928;2023-07-13T05:06:01;100020.94;;;19.61;72.16
30730;BME280;17476;48.458;7.928;2023-07-13T05:08:27;100021.19;;;19.53;72.25
30730;BME280;17476;48.458;7.928;2023-07-13T05:10:53;100017.41;;;19.67;71.45
30730;BME280;17476;48.458;7.928;2023-07-13T05:13:19;100024.47;;;19.92;70.53
30730;BME280;17476;48.458;7.928;2023-07-13T05:15:46;100019.72;;;20.12;69.33
30730;BME280;17476;48.458;7.928;2023-07-13T05:18:12;100029.97;;;20.27;68.31
30730;BME280;17476;48.458;7.928;2023-07-13T05:20:44;100034.38;;;20.33;67.94
30730;BME280;17476;48.458;7.928;2023-07-13T05:23:10;100025.84;;;20.42;67.53
30730;BME280;17476;48.458;7.928;2023-07-13T05:25:36;100028.22;;;20.51;66.73
30730;BME280;17476;48.458;7.928;2023-07-13T05:28:02;100035.75;;;20.54;66.51
30730;BME280;17476;48.458;7.928;2023-07-13T05:30:28;100041.06;;;20.54;66.65
30730;BME280;17476;48.458;7.928;2023-07-13T05:32:53;100050.06;;;20.53;67.18
30730;BME280;17476;48.458;7.928;2023-07-13T05:35:19;100043.28;;;20.68;66.96
30730;BME280;17476;48.458;7.928;2023-07-13T05:37:45;100046.19;;;20.79;66.87
30730;BME280;17476;48.458;7.928;2023-07-13T05:40:11;100043.47;;;20.97;66.49
30730;BME280;17476;48.458;7.928;2023-07-13T05:42:37;100047.91;;;21.15;66.09
30730;BME280;17476;48.458;7.928;2023-07-13T05:45:03;100046.06;;;21.27;65.84
30730;BME280;17476;48.458;7.928;2023-07-13T05:47:32;100051.28;;;21.45;65.22
30730;BME280;17476;48.458;7.928;2023-07-13T05:49:58;100056.03;;;21.55;64.70
30730;BME280;17476;48.458;7.928;2023-07-13T05:52:23;100056.59;;;21.57;64.43
30730;BME280;17476;48.458;7.928;2023-07-13T05:54:49;100059.72;;;21.66;64.48
30730;BME280;17476;48.458;7.928;2023-07-13T05:57:15;100065.03;;;21.77;64.35
30730;BME280;17476;48.458;7.928;2023-07-13T05:59:41;100064.06;;;21.95;63.43
30730;BME280;17476;48.458;7.928;2023-07-13T06:02:09;100065.22;;;21.99;62.26
30730;BME280;17476;48.458;7.928;2023-07-13T06:04:36;100063.84;;;22.09;62.73
30730;BME280;17476;48.458;7.928;2023-07-13T06:07:02;100066.56;;;22.25;62.04
30730;BME280;17476;48.458;7.928;2023-07-13T06:09:27;100062.19;;;22.48;61.83
30730;BME280;17476;48.458;7.928;2023-07-13T06:11:53;100070.41;;;22.46;61.49
30730;BME280;17476;48.458;7.928;2023-07-13T06:14:19;100070.69;;;22.61;61.47
30730;BME280;17476;48.458;7.928;2023-07-13T06:16:45;100075.00;;;22.79;60.96
30730;BME280;17476;48.458;7.928;2023-07-13T06:19:11;100074.59;;;22.99;60.11
30730;BME280;17476;48.458;7.928;2023-07-13T06:21:36;100078.94;;;23.22;59.99
30730;BME280;17476;48.458;7.928;2023-07-13T06:24:02;100076.84;;;22.91;58.17
30730;BME280;17476;48.458;7.928;2023-07-13T06:26:28;100074.13;;;22.74;60.70
30730;BME280;17476;48.458;7.928;2023-07-13T06:28:55;100081.78;;;22.99;58.85
30730;BME280;17476;48.458;7.928;2023-07-13T06:31:20;100081.88;;;23.37;59.31
30730;BME280;17476;48.458;7.928;2023-07-13T06:33:46;100089.44;;;23.29;57.04
30730;BME280;17476;48.458;7.928;2023-07-13T06:36:12;100090.72;;;23.60;57.85
30730;BME280;17476;48.458;7.928;2023-07-13T06:38:38;100085.06;;;23.56;55.11
30730;BME280;17476;48.458;7.928;2023-07-13T06:41:06;100094.28;;;24.04;55.83
30730;BME280;17476;48.458;7.928;2023-07-13T06:43:33;100096.31;;;23.75;53.31
30730;BME280;17476;48.458;7.928;2023-07-13T06:45:59;100093.06;;;23.73;53.25
30730;BME280;17476;48.458;7.928;2023-07-13T06:48:25;100100.00;;;24.13;52.88
30730;BME280;17476;48.458;7.928;2023-07-13T06:50:51;100102.72;;;23.96;52.33
30730;BME280;17476;48.458;7.928;2023-07-13T06:53:19;100097.81;;;24.32;55.04
30730;BME280;17476;48.458;7.928;2023-07-13T06:55:45;100096.81;;;24.60;50.70
30730;BME280;17476;48.458;7.928;2023-07-13T06:58:12;100095.44;;;24.84;50.88
30730;BME280;17476;48.458;7.928;2023-07-13T07:00:38;100087.97;;;25.50;52.60
30730;BME280;17476;48.458;7.928;2023-07-13T07:03:05;100089.88;;;26.07;53.18
30730;BME280;17476;48.458;7.928;2023-07-13T07:05:31;100086.81;;;26.46;47.33
30730;BME280;17476;48.458;7.928;2023-07-13T07:07:57;100094.41;;;26.85;50.91
30730;BME280;17476;48.458;7.928;2023-07-13T07:10:23;100088.78;;;27.27;49.50
30730;BME280;17476;48.458;7.928;2023-07-13T07:12:48;100100.03;;;27.65;48.00
30730;BME280;17476;48.458;7.928;2023-07-13T07:15:14;100095.06;;;28.02;47.62
30730;BME280;17476;48.458;7.928;2023-07-13T07:17:40;100101.16;;;28.28;43.64
30730;BME280;17476;48.458;7.928;2023-07-13T07:20:07;100097.38;;;28.40;42.14
30730;BME280;17476;48.458;7.928;2023-07-13T07:22:33;100086.00;;;28.53;44.17
30730;BME280;17476;48.458;7.928;2023-07-13T07:24:59;100091.41;;;28.48;41.31
30730;BME280;17476;48.458;7.928;2023-07-13T07:27:25;100098.75;;;28.71;43.01
30730;BME280;17476;48.458;7.928;2023-07-13T07:29:51;100109.38;;;28.97;42.52
30730;BME280;17476;48.458;7.928;2023-07-13T07:32:17;100105.25;;;29.38;42.49
30730;BME280;17476;48.458;7.928;2023-07-13T07:34:43;100099.25;;;29.76;40.03
30730;BME280;17476;48.458;7.928;2023-07-13T07:37:12;100098.66;;;30.03;40.28
30730;BME280;17476;48.458;7.928;2023-07-13T07:39:38;100096.44;;;30.48;41.99
30730;BME280;17476;48.458;7.928;2023-07-13T07:42:04;100098.25;;;30.76;40.22
30730;BME280;17476;48.458;7.928;2023-07-13T07:44:33;100098.34;;;31.04;37.77
30730;BME280;17476;48.458;7.928;2023-07-13T07:46:59;100104.56;;;30.85;39.77
30730;BME280;17476;48.458;7.928;2023-07-13T07:49:25;100098.84;;;31.06;37.36
30730;BME280;17476;48.458;7.928;2023-07-13T07:51:51;100101.88;;;31.50;39.55
30730;BME280;17476;48.458;7.928;2023-07-13T07:54:17;100097.69;;;31.99;36.59
30730;BME280;17476;48.458;7.928;2023-07-13T07:56:43;100099.03;;;32.24;35.43
30730;BME280;17476;48.458;7.928;2023-07-13T07:59:09;100098.94;;;32.43;33.57
30730;BME280;17476;48.458;7.928;2023-07-13T08:01:36;100105.00;;;32.63;35.20
30730;BME280;17476;48.458;7.928;2023-07-13T08:04:02;100099.47;;;32.68;33.94
30730;BME280;17476;48.458;7.928;2023-07-13T08:06:28;100106.03;;;32.89;34.95
30730;BME280;17476;48.458;7.928;2023-07-13T08:08:54;100102.19;;;33.12;31.36
30730;BME280;17476;48.458;7.928;2023-07-13T08:11:21;100101.06;;;32.46;32.48
30730;BME280;17476;48.458;7.928;2023-07-13T08:13:47;100104.91;;;32.90;34.46
30730;BME280;17476;48.458;7.928;2023-07-13T08:16:13;100097.50;;;33.04;32.92
30730;BME280;17476;48.458;7.928;2023-07-13T08:18:39;100098.59;;;33.26;33.81
30730;BME280;17476;48.458;7.928;2023-07-13T08:21:06;100105.59;;;33.49;33.33
30730;BME280;17476;48.458;7.928;2023-07-13T08:23:34;100098.03;;;33.77;32.08
30730;BME280;17476;48.458;7.928;2023-07-13T08:26:00;100101.53;;;34.09;29.36
30730;BME280;17476;48.458;7.928;2023-07-13T08:28:28;100098.16;;;34.03;30.22
30730;BME280;17476;48.458;7.928;2023-07-13T08:30:54;100094.97;;;34.18;30.74
30730;BME280;17476;48.458;7.928;2023-07-13T08:33:21;100098.94;;;34.04;30.19
30730;BME280;17476;48.458;7.928;2023-07-13T08:35:50;100096.03;;;33.91;28.76
30730;BME280;17476;48.458;7.928;2023-07-13T08:38:18;100089.22;;;34.03;31.54
30730;BME280;17476;48.458;7.928;2023-07-13T08:40:49;100092.75;;;34.38;28.32
30730;BME280;17476;48.458;7.928;2023-07-13T08:43:19;100093.91;;;34.45;29.91
30730;BME280;17476;48.458;7.928;2023-07-13T08:46:11;100087.78;;;35.18;31.42
30730;BME280;17476;48.458;7.928;2023-07-13T08:48:45;100089.44;;;35.48;28.49
30730;BME280;17476;48.458;7.928;2023-07-13T08:53:59;100096.75;;;35.65;28.18
30730;BME280;17476;48.458;7.928;2023-07-13T08:56:28;100090.53;;;35.94;25.93
30730;BME280;17476;48.458;7.928;2023-07-13T08:59:06;100097.66;;;36.28;28.18
30730;BME280;17476;48.458;7.928;2023-07-13T09:02:57;100091.81;;;36.80;27.82
30730;BME280;17476;48.458;7.928;2023-07-13T09:05:12;100088.72;;;36.49;25.53
30730;BME280;17476;48.458;7.928;2023-07-13T09:08:31;100098.06;;;35.59;25.27
30730;BME280;17476;48.458;7.928;2023-07-13T09:13:47;100095.66;;;34.93;26.61
30730;BME280;17476;48.458;7.928;2023-07-13T09:16:16;100092.38;;;35.43;26.23
30730;BME280;17476;48.458;7.928;2023-07-13T09:18:47;100094.03;;;35.95;27.26
30730;BME280;17476;48.458;7.928;2023-07-13T09:23:56;100088.91;;;36.44;24.45
30730;BME280;17476;48.458;7.928;2023-07-13T09:26:29;100086.88;;;36.41;25.66
30730;BME280;17476;48.458;7.928;2023-07-13T09:29:06;100084.38;;;36.69;27.06
30730;BME280;17476;48.458;7.928;2023-07-13T09:31:44;100082.56;;;36.94;24.71
30730;BME280;17476;48.458;7.928;2023-07-13T09:34:13;100079.69;;;36.90;24.81
30730;BME280;17476;48.458;7.928;2023-07-13T09:36:39;100080.22;;;36.83;24.28
30730;BME280;17476;48.458;7.928;2023-07-13T09:44:39;100074.88;;;36.12;24.46
30730;BME280;17476;48.458;7.928;2023-07-13T09:47:27;100082.91;;;36.71;26.24
30730;BME280;17476;48.458;7.928;2023-07-13T09:50:09;100080.75;;;36.77;26.28
30730;BME280;17476;48.458;7.928;2023-07-13T09:52:48;100077.72;;;36.36;25.00
30730;BME280;17476;48.458;7.928;2023-07-13T09:55:25;100083.00;;;36.96;23.27
30730;BME280;17476;48.458;7.928;2023-07-13T09:57:51;100082.63;;;37.30;25.07
30730;BME280;17476;48.458;7.928;2023-07-13T10:00:29;100089.38;;;37.69;24.46
30730;BME280;17476;48.458;7.928;2023-07-13T10:03:05;100080.50;;;37.85;21.65
30730;BME280;17476;48.458;7.928;2023-07-13T10:05:40;100086.88;;;37.77;24.36
30730;BME280;17476;48.458;7.928;2023-07-13T10:08:29;100088.22;;;37.58;24.59
30730;BME280;17476;48.458;7.928;2023-07-13T10:11:18;100081.41;;;37.64;24.09
30730;BME280;17476;48.458;7.928;2023-07-13T10:13:59;100082.41;;;38.21;21.99
30730;BME280;17476;48.458;7.928;2023-07-13T10:16:33;100085.03;;;38.58;23.20
30730;BME280;17476;48.458;7.928;2023-07-13T10:19:22;100083.03;;;38.98;23.63
30730;BME280;17476;48.458;7.928;2023-07-13T10:22:01;100080.84;;;39.51;23.13
30730;BME280;17476;48.458;7.928;2023-07-13T10:24:34;100078.81;;;39.48;20.74
30730;BME280;17476;48.458;7.928;2023-07-13T10:27:32;100076.91;;;38.61;24.18
30730;BME280;17476;48.458;7.928;2023-07-13T10:30:25;100071.31;;;38.70;20.66
30730;BME280;17476;48.458;7.928;2023-07-13T10:32:54;100078.31;;;37.78;23.40
30730;BME280;17476;48.458;7.928;2023-07-13T10:35:21;100084.13;;;37.52;24.46
30730;BME280;17476;48.458;7.928;2023-07-13T10:38:01;100086.53;;;37.90;21.92
30730;BME280;17476;48.458;7.928;2023-07-13T10:41:02;100087.69;;;37.89;22.85
30730;BME280;17476;48.458;7.928;2023-07-13T10:43:44;100086.38;;;38.11;25.65
30730;BME280;17476;48.458;7.928;2023-07-13T10:46:15;100093.69;;;38.47;22.99
30730;BME280;17476;48.458;7.928;2023-07-13T10:48:44;100087.03;;;38.33;22.66
30730;BME280;17476;48.458;7.928;2023-07-13T10:51:17;100088.47;;;37.65;21.77
30730;BME280;17476;48.458;7.928;2023-07-13T10:53:43;100087.94;;;36.81;21.98
30730;BME280;17476;48.458;7.928;2023-07-13T10:56:27;100083.19;;;35.57;25.01
30730;BME280;17476;48.458;7.928;2023-07-13T10:59:10;100080.34;;;35.36;23.51
30730;BME280;17476;48.458;7.928;2023-07-13T11:02:10;100074.22;;;34.74;24.35
30730;BME280;17476;48.458;7.928;2023-07-13T11:04:46;100072.53;;;36.02;24.29
30730;BME280;17476;48.458;7.928;2023-07-13T11:07:29;100057.16;;;37.26;25.90
30730;BME280;17476;48.458;7.928;2023-07-13T11:09:58;100055.16;;;38.24;22.19
30730;BME280;17476;48.458;7.928;2023-07-13T11:17:37;100056.47;;;38.99;21.94
30730;BME280;17476;48.458;7.928;2023-07-13T11:23:26;100058.84;;;40.15;21.32
30730;BME280;17476;48.458;7.928;2023-07-13T11:25:53;100063.72;;;40.44;20.67
30730;BME280;17476;48.458;7.928;2023-07-13T11:28:24;100066.56;;;40.28;20.60
30730;BME280;17476;48.458;7.928;2023-07-13T11:36:27;100045.47;;;37.50;21.89
30730;BME280;17476;48.458;7.928;2023-07-13T11:39:11;100059.94;;;36.60;24.13
30730;BME280;17476;48.458;7.928;2023-07-13T11:41:51;100062.59;;;36.48;24.60
30730;BME280;17476;48.458;7.928;2023-07-13T11:44:21;100063.13;;;35.99;25.21
30730;BME280;17476;48.458;7.928;2023-07-13T11:46:54;100059.94;;;35.89;25.29
30730;BME280;17476;48.458;7.928;2023-07-13T11:49:26;100062.09;;;35.74;25.80
30730;BME280;17476;48.458;7.928;2023-07-13T11:51:53;100057.53;;;35.96;25.74
30730;BME280;17476;48.458;7.928;2023-07-13T11:54:33;100061.69;;;36.77;25.37
30730;BME280;17476;48.458;7.928;2023-07-13T11:59:45;100063.56;;;37.79;23.78
30730;BME280;17476;48.458;7.928;2023-07-13T12:02:28;100061.38;;;37.72;23.62
30730;BME280;17476;48.458;7.928;2023-07-13T12:04:54;100067.50;;;37.21;22.50
30730;BME280;17476;48.458;7.928;2023-07-13T12:07:22;100058.78;;;36.61;23.71
30730;BME280;17476;48.458;7.928;2023-07-13T12:09:48;100068.94;;;36.10;23.49
30730;BME280;17476;48.458;7.928;2023-07-13T12:12:22;100064.63;;;36.30;26.53
30730;BME280;17476;48.458;7.928;2023-07-13T12:14:51;100061.38;;;36.36;23.68
30730;BME280;17476;48.458;7.928;2023-07-13T12:17:24;100062.72;;;37.17;24.71
30730;BME280;17476;48.458;7.928;2023-07-13T12:19:52;100059.44;;;37.73;25.00
30730;BME280;17476;48.458;7.928;2023-07-13T12:22:20;100067.75;;;38.01;23.28
30730;BME280;17476;48.458;7.928;2023-07-13T12:24:47;100052.25;;;38.05;23.61
30730;BME280;17476;48.458;7.928;2023-07-13T12:27:25;100055.91;;;37.97;22.71
30730;BME280;17476;48.458;7.928;2023-07-13T12:29:59;100054.03;;;38.54;24.37
30730;BME280;17476;48.458;7.928;2023-07-13T12:32:26;100059.28;;;38.18;22.96
30730;BME280;17476;48.458;7.928;2023-07-13T12:35:04;100049.13;;;38.59;21.41
30730;BME280;17476;48.458;7.928;2023-07-13T12:37:35;100060.16;;;39.07;22.13
30730;BME280;17476;48.458;7.928;2023-07-13T12:40:01;100065.72;;;38.94;23.02
30730;BME280;17476;48.458;7.928;2023-07-13T12:42:32;100065.47;;;38.99;22.71
30730;BME280;17476;48.458;7.928;2023-07-13T12:45:27;100061.13;;;38.83;22.36
30730;BME280;17476;48.458;7.928;2023-07-13T12:48:12;100059.03;;;38.64;23.20
30730;BME280;17476;48.458;7.928;2023-07-13T12:50:42;100067.81;;;38.57;23.19
30730;BME280;17476;48.458;7.928;2023-07-13T12:53:20;100065.53;;;38.31;21.60
30730;BME280;17476;48.458;7.928;2023-07-13T12:55:50;100074.94;;;37.69;24.03
30730;BME280;17476;48.458;7.928;2023-07-13T12:58:35;100065.72;;;37.37;23.05
30730;BME280;17476;48.458;7.928;2023-07-13T13:01:03;100070.81;;;37.38;23.38
30730;BME280;17476;48.458;7.928;2023-07-13T13:03:38;100065.38;;;37.38;23.44
30730;BME280;17476;48.458;7.928;2023-07-13T13:06:27;100068.41;;;37.25;23.25
30730;BME280;17476;48.458;7.928;2023-07-13T13:08:57;100069.16;;;37.01;23.69
30730;BME280;17476;48.458;7.928;2023-07-13T13:11:29;100063.81;;;36.38;24.15
30730;BME280;17476;48.458;7.928;2023-07-13T13:13:55;100070.84;;;36.18;23.81
30730;BME280;17476;48.458;7.928;2023-07-13T13:18:53;100071.88;;;36.05;25.84
30730;BME280;17476;48.458;7.928;2023-07-13T13:21:20;100066.63;;;36.00;25.18
30730;BME280;17476;48.458;7.928;2023-07-13T13:23:47;100063.19;;;35.91;25.45
30730;BME280;17476;48.458;7.928;2023-07-13T13:26:15;100067.56;;;35.74;24.45
30730;BME280;17476;48.458;7.928;2023-07-13T13:28:43;100059.09;;;35.67;25.45
30730;BME280;17476;48.458;7.928;2023-07-13T13:31:10;100056.84;;;35.69;25.03
30730;BME280;17476;48.458;7.928;2023-07-13T13:33:41;100060.91;;;35.93;23.89
30730;BME280;17476;48.458;7.928;2023-07-13T13:36:20;100048.81;;;36.23;25.17
30730;BME280;17476;48.458;7.928;2023-07-13T13:38:49;100059.69;;;36.53;22.89
30730;BME280;17476;48.458;7.928;2023-07-13T13:41:16;100062.38;;;37.19;23.58